createdAt,value
2022-11-16T07:18:26.934Z,65.28
2022-11-16T07:21:31.119Z,88.28
2022-11-16T07:24:34.661Z,78.12
2022-11-16T07:27:38.152Z,68.12
2022-11-16T07:30:41.193Z,99.57
2022-11-16T07:33:44.472Z,79.75
2022-11-16T07:36:50.896Z,123.95
2022-11-16T07:39:53.958Z,96.85
2022-11-16T07:42:58.723Z,74.20
2022-11-16T07:49:34.182Z,109.63
2022-11-16T07:52:38.224Z,72.72
2022-11-16T07:55:41.202Z,94.75
2022-11-16T07:58:45.749Z,62.85
2022-11-16T08:01:48.931Z,71.85
2022-11-16T08:04:53.051Z,71.90
2022-11-16T08:07:56.876Z,95.78
2022-11-16T08:11:05.579Z,67.43
2022-11-16T08:14:11.649Z,53.45
2022-11-16T08:17:14.838Z,105.85
2022-11-16T08:20:19.115Z,83.65
2022-11-16T08:23:22.852Z,94.70
2022-11-16T08:26:26.276Z,68.87
2022-11-16T08:29:30.394Z,92.60
2022-11-16T08:32:33.504Z,65.22
2022-11-16T08:35:36.790Z,85.05
2022-11-16T08:38:40.679Z,66.72
2022-11-16T08:41:44.476Z,85.65
2022-11-16T08:44:47.541Z,63.80
2022-11-16T08:48:03.100Z,75.53
2022-11-16T08:51:18.652Z,91.63
2022-11-16T08:54:22.886Z,76.62
2022-11-16T08:57:25.561Z,89.93
2022-11-16T09:00:28.859Z,82.53
2022-11-16T09:03:31.442Z,83.05
2022-11-16T09:06:36.024Z,79.55
2022-11-16T09:09:38.536Z,97.28
2022-11-16T09:12:41.805Z,83.90
2022-11-16T09:15:45.001Z,60.58
2022-11-16T09:18:49.846Z,101.57
2022-11-16T09:21:52.565Z,61.37
2022-11-16T09:24:55.498Z,75.62
2022-11-16T09:27:58.131Z,101.03
2022-11-16T09:31:04.361Z,108.43
2022-11-16T09:34:07.625Z,97.93
2022-11-16T09:37:10.566Z,92.37
2022-11-16T09:40:13.350Z,98.87
2022-11-16T09:43:53.604Z,82.68
2022-11-16T09:46:59.062Z,90.45
2022-11-16T09:50:05.505Z,93.28
2022-11-16T09:53:26.871Z,97.60
2022-11-16T09:56:35.339Z,76.43
2022-11-16T09:59:45.219Z,86.55
2022-11-16T10:02:52.109Z,81.80
2022-11-16T10:06:05.310Z,83.22
2022-11-16T10:09:11.188Z,84.82
2022-11-16T10:12:34.145Z,86.68
2022-11-16T10:16:10.721Z,72.05
2022-11-16T10:19:36.045Z,82.40
2022-11-16T10:22:38.640Z,80.10
2022-11-16T10:25:41.526Z,94.03
2022-11-16T10:28:53.629Z,86.72
2022-11-16T10:32:22.452Z,78.62
2022-11-16T10:35:31.257Z,85.18
2022-11-16T10:38:35.005Z,84.93
2022-11-16T10:41:42.719Z,78.47
2022-11-16T10:44:53.458Z,68.55
2022-11-16T10:48:25.001Z,65.62
2022-11-16T10:51:28.141Z,69.97
2022-11-16T10:54:30.707Z,78.15
2022-11-16T10:58:04.045Z,71.28
2022-11-16T11:01:10.947Z,70.85
2022-11-16T11:04:16.970Z,70.37
2022-11-16T11:07:30.909Z,68.47
2022-11-16T11:10:36.883Z,73.87
2022-11-16T11:13:39.586Z,69.00
2022-11-16T11:16:42.785Z,60.95
2022-11-16T11:19:45.334Z,71.10
2022-11-16T11:22:58.596Z,60.08
2022-11-16T11:26:01.435Z,60.42
2022-11-16T11:29:16.791Z,66.72
2022-11-16T11:32:24.103Z,80.85
2022-11-16T11:35:34.309Z,67.45
2022-11-16T11:39:03.459Z,79.40
2022-11-16T11:42:15.114Z,64.53
2022-11-16T11:45:19.582Z,65.70
2022-11-16T11:48:29.203Z,71.70
2022-11-16T11:51:37.213Z,71.63
2022-11-16T11:54:46.806Z,67.87
2022-11-16T11:57:53.734Z,65.07
2022-11-16T12:01:25.285Z,66.15
2022-11-16T12:05:00.968Z,63.83
2022-11-16T12:08:14.711Z,60.70
2022-11-16T12:11:38.842Z,53.87
2022-11-16T12:14:56.215Z,71.40
2022-11-16T12:17:59.029Z,68.10
2022-11-16T12:21:31.405Z,65.35
2022-11-16T12:24:56.747Z,62.28
2022-11-16T12:28:04.105Z,62.38
2022-11-16T12:31:44.670Z,68.57
2022-11-16T12:34:56.219Z,64.15
2022-11-16T12:38:27.954Z,59.20
2022-11-16T12:41:42.477Z,59.08
2022-11-16T12:45:10.968Z,59.72
2022-11-16T12:48:43.172Z,57.08
2022-11-16T12:52:13.581Z,79.28
2022-11-16T12:55:44.119Z,75.43
2022-11-16T12:59:13.611Z,78.18
2022-11-16T13:02:54.308Z,83.27
2022-11-16T13:06:25.555Z,72.32
2022-11-16T13:09:32.792Z,72.62
2022-11-16T13:12:37.268Z,71.53
2022-11-16T13:15:42.694Z,65.12
2022-11-16T13:18:47.017Z,72.70
2022-11-16T13:22:03.139Z,75.15
2022-11-16T13:25:05.974Z,67.45
2022-11-16T13:28:17.380Z,73.07
2022-11-16T13:31:20.566Z,71.18
2022-11-16T13:34:31.953Z,65.72
2022-11-16T13:37:37.750Z,72.87
2022-11-16T13:40:41.019Z,66.50
2022-11-16T13:43:49.512Z,67.32
2022-11-16T13:46:56.978Z,68.43
2022-11-16T13:50:02.952Z,73.15
2022-11-16T13:56:49.903Z,79.80
2022-11-16T14:00:01.549Z,77.93
2022-11-16T14:03:15.524Z,65.28
2022-11-16T14:06:24.241Z,72.47
2022-11-16T14:09:48.460Z,66.03
2022-11-16T14:12:54.066Z,71.57
2022-11-16T14:16:14.931Z,59.78
2022-11-16T14:19:49.308Z,53.03
2022-11-16T14:23:26.393Z,52.20
2022-11-16T14:26:48.064Z,50.70
2022-11-16T14:30:15.591Z,47.62
2022-11-16T14:33:29.499Z,49.55
2022-11-16T14:36:51.088Z,54.55
2022-11-16T14:40:01.938Z,36.22
2022-11-16T14:43:16.962Z,41.15
2022-11-16T14:46:30.103Z,36.25
2022-11-16T14:49:36.055Z,43.65
2022-11-16T14:52:47.562Z,37.90
2022-11-16T14:55:50.169Z,35.70
2022-11-16T14:58:54.225Z,45.00
2022-11-16T15:01:58.079Z,39.38
2022-11-16T15:05:01.382Z,33.55
2022-11-16T15:08:21.601Z,36.03
2022-11-16T15:11:56.804Z,37.67
2022-11-16T15:15:05.436Z,35.92
2022-11-16T15:18:13.095Z,36.70
2022-11-16T15:21:23.127Z,35.50
2022-11-16T15:27:40.163Z,30.20
2022-11-16T15:30:46.443Z,30.42
2022-11-16T15:33:50.366Z,26.95
2022-11-16T15:36:53.200Z,28.27
2022-11-16T15:39:58.098Z,24.35
2022-11-16T15:43:04.572Z,29.00
2022-11-16T15:46:08.547Z,29.12
2022-11-16T15:49:38.488Z,28.67
2022-11-16T15:52:46.107Z,24.83
2022-11-16T15:55:50.169Z,29.27
2022-11-16T15:58:54.540Z,24.23
2022-11-16T16:01:57.521Z,32.63
2022-11-16T16:05:00.388Z,34.20
2022-11-16T16:08:03.642Z,83.05
2022-11-16T16:11:28.036Z,75.32
2022-11-16T16:14:30.932Z,70.62
2022-11-16T16:17:34.439Z,55.55
2022-11-16T16:20:47.223Z,50.10
2022-11-16T16:23:53.642Z,45.22
2022-11-16T16:26:56.239Z,45.95
2022-11-16T16:30:04.447Z,46.03
2022-11-16T16:33:18.489Z,45.30
2022-11-16T16:36:23.673Z,44.42
2022-11-16T16:39:26.626Z,48.50
2022-11-16T16:42:29.609Z,40.83
2022-11-16T16:45:38.796Z,47.88
2022-11-16T16:48:44.616Z,31.75
2022-11-16T16:51:47.427Z,40.47
2022-11-16T16:54:50.519Z,40.03
2022-11-16T16:57:57.431Z,31.25
2022-11-16T17:01:05.625Z,41.83
2022-11-16T17:04:08.545Z,59.03
2022-11-16T17:07:11.467Z,33.50
2022-11-16T17:10:14.111Z,27.67
2022-11-16T17:13:17.025Z,32.33
2022-11-16T17:16:19.691Z,25.08
2022-11-16T17:19:22.554Z,22.13
2022-11-16T17:22:25.533Z,21.83
2022-11-16T17:25:30.248Z,20.05
2022-11-16T17:28:33.234Z,24.90
2022-11-16T17:31:36.380Z,22.83
2022-11-16T17:34:41.400Z,24.27
2022-11-16T17:37:44.560Z,20.70
2022-11-16T17:40:47.315Z,22.92
2022-11-16T17:43:53.178Z,27.37
2022-11-16T17:46:55.849Z,24.45
2022-11-16T17:49:59.306Z,26.33
2022-11-16T17:53:01.967Z,27.37
2022-11-16T17:56:06.636Z,26.00
2022-11-16T17:59:09.353Z,22.20
2022-11-16T18:02:12.326Z,20.92
2022-11-16T18:05:15.385Z,18.75
2022-11-16T18:08:18.021Z,19.80
2022-11-16T18:11:26.805Z,18.35
2022-11-16T18:14:29.477Z,20.48
2022-11-16T18:17:32.556Z,16.65
2022-11-16T18:20:37.127Z,19.37
2022-11-16T18:23:40.096Z,18.80
2022-11-16T18:26:42.877Z,14.45
2022-11-16T18:29:45.762Z,14.70
2022-11-16T18:32:49.335Z,19.12
2022-11-16T18:35:52.153Z,20.00
2022-11-16T18:38:54.776Z,13.52
2022-11-16T18:41:57.645Z,16.55
2022-11-16T18:45:00.271Z,13.60
2022-11-16T18:48:07.269Z,13.05
2022-11-16T18:51:11.237Z,13.93
2022-11-16T18:54:14.948Z,15.07
2022-11-16T18:57:17.617Z,17.87
2022-11-16T19:00:21.027Z,21.58
2022-11-16T19:03:23.702Z,13.77
2022-11-16T19:06:26.723Z,13.05
2022-11-16T19:09:29.317Z,12.60
2022-11-16T19:12:32.353Z,12.13
2022-11-16T19:15:35.375Z,11.85
2022-11-16T19:18:38.588Z,11.07
2022-11-16T19:21:41.912Z,13.93
2022-11-16T19:24:44.853Z,13.65
2022-11-16T19:27:47.481Z,10.30
2022-11-16T19:30:50.418Z,12.15
2022-11-16T19:33:55.160Z,10.45
2022-11-16T19:36:57.928Z,13.55
2022-11-16T19:40:00.651Z,14.25
2022-11-16T19:43:03.861Z,13.32
2022-11-16T19:46:09.104Z,11.82
2022-11-16T19:49:19.633Z,12.02
2022-11-16T19:52:22.705Z,12.85
2022-11-16T19:55:25.619Z,14.45
2022-11-16T19:58:28.459Z,15.52
2022-11-16T20:01:31.523Z,11.12
2022-11-16T20:04:34.481Z,11.85
2022-11-16T20:07:38.875Z,13.25
2022-11-16T20:10:41.935Z,11.95
2022-11-16T20:13:44.499Z,12.57
2022-11-16T20:16:50.340Z,12.15
2022-11-16T20:19:52.950Z,15.43
2022-11-16T20:22:55.922Z,20.37
2022-11-16T20:25:58.517Z,12.95
2022-11-16T20:29:01.546Z,13.52
2022-11-16T20:32:04.176Z,14.57
2022-11-16T20:35:07.329Z,11.50
2022-11-16T20:38:10.015Z,14.85
2022-11-16T20:41:15.889Z,22.75
2022-11-16T20:44:21.414Z,25.65
2022-11-16T20:47:27.166Z,28.73
2022-11-16T20:50:29.871Z,19.85
2022-11-16T20:53:34.428Z,19.42
2022-11-16T20:56:37.872Z,16.75
2022-11-16T20:59:40.750Z,17.60
2022-11-16T21:02:43.294Z,18.15
2022-11-16T21:05:51.663Z,19.58
2022-11-16T21:08:55.522Z,22.98
2022-11-16T21:12:17.216Z,20.80
2022-11-16T21:15:19.860Z,25.37
2022-11-16T21:18:27.858Z,21.75
2022-11-16T21:24:36.009Z,17.85
2022-11-16T21:27:38.636Z,16.92
2022-11-16T21:30:41.518Z,20.50
2022-11-16T21:33:45.215Z,17.02
2022-11-16T21:36:48.091Z,19.90
2022-11-16T21:39:50.713Z,18.02
2022-11-16T21:42:53.619Z,19.52
2022-11-16T21:46:03.043Z,18.55
2022-11-16T21:49:07.598Z,16.87
2022-11-16T21:52:10.176Z,16.25
2022-11-16T21:55:13.014Z,22.35
2022-11-16T21:58:15.624Z,15.90
2022-11-16T22:01:19.592Z,21.05
2022-11-16T22:04:41.080Z,20.85
2022-11-16T22:07:43.728Z,19.02
2022-11-16T22:10:52.984Z,26.05
2022-11-16T22:13:55.615Z,20.92
2022-11-16T22:16:58.472Z,17.73
2022-11-16T22:20:01.072Z,21.17
2022-11-16T22:23:03.997Z,17.73
2022-11-16T22:26:12.221Z,20.92
2022-11-16T22:29:15.033Z,21.20
2022-11-16T22:32:17.706Z,21.77
2022-11-16T22:35:20.701Z,20.35
2022-11-16T22:38:23.498Z,24.00
2022-11-16T22:41:26.397Z,22.52
2022-11-16T22:44:28.913Z,22.65
2022-11-16T22:47:33.465Z,21.83
2022-11-16T22:50:36.542Z,22.45
2022-11-16T22:53:39.402Z,20.92
2022-11-16T22:56:42.910Z,19.55
2022-11-16T22:59:45.831Z,20.48
2022-11-16T23:02:48.581Z,18.83
2022-11-16T23:05:51.627Z,21.85
2022-11-16T23:08:54.595Z,21.02
2022-11-16T23:12:16.701Z,23.90
2022-11-16T23:15:37.958Z,19.08
2022-11-16T23:18:40.879Z,19.73
2022-11-16T23:22:02.436Z,19.58
2022-11-16T23:25:26.453Z,21.23
2022-11-16T23:28:29.063Z,25.23
2022-11-16T23:31:31.951Z,22.60
2022-11-16T23:34:34.737Z,22.10
2022-11-16T23:37:55.728Z,21.17
2022-11-16T23:40:58.299Z,18.15
2022-11-16T23:44:01.269Z,26.55
2022-11-16T23:47:03.917Z,28.30
2022-11-16T23:50:07.048Z,24.20
2022-11-16T23:53:10.361Z,24.73
2022-11-16T23:56:13.304Z,26.35
2022-11-16T23:59:16.142Z,28.58
